createdAt,value
2022-10-28T00:00:30.510Z,11.50
2022-10-28T00:03:02.433Z,11.50
2022-10-28T00:05:34.999Z,11.50
2022-10-28T00:08:06.750Z,11.50
2022-10-28T00:10:38.479Z,11.50
2022-10-28T00:13:10.319Z,11.60
2022-10-28T00:15:42.126Z,11.60
2022-10-28T00:18:14.049Z,11.60
2022-10-28T00:20:45.755Z,11.60
2022-10-28T00:23:19.989Z,11.60
2022-10-28T00:25:51.710Z,11.60
2022-10-28T00:28:23.496Z,11.60
2022-10-28T00:30:55.282Z,11.60
2022-10-28T00:33:27.127Z,11.50
2022-10-28T00:36:07.377Z,11.50
2022-10-28T00:38:39.838Z,11.50
2022-10-28T00:41:12.528Z,11.50
2022-10-28T00:43:47.427Z,11.50
2022-10-28T00:46:34.277Z,11.50
2022-10-28T00:49:12.428Z,11.50
2022-10-28T00:51:47.613Z,11.50
2022-10-28T00:54:22.532Z,11.50
2022-10-28T00:56:56.219Z,11.50
2022-10-28T00:59:38.801Z,11.50
2022-10-28T01:02:10.667Z,11.50
2022-10-28T01:04:42.905Z,11.50
2022-10-28T01:07:15.812Z,11.50
2022-10-28T01:09:47.749Z,11.50
2022-10-28T01:12:22.527Z,11.50
2022-10-28T01:14:57.403Z,11.50
2022-10-28T01:18:04.699Z,11.50
2022-10-28T01:20:44.217Z,11.50
2022-10-28T01:23:26.965Z,11.60
2022-10-28T01:26:17.547Z,11.50
2022-10-28T01:28:52.409Z,11.60
2022-10-28T01:31:41.642Z,11.60
2022-10-28T01:34:32.185Z,11.60
2022-10-28T01:37:07.037Z,11.60
2022-10-28T01:39:53.728Z,11.60
2022-10-28T01:42:28.778Z,11.60
2022-10-28T01:45:03.854Z,11.60
2022-10-28T01:47:42.570Z,11.70
2022-10-28T01:50:32.677Z,11.70
2022-10-28T01:53:08.156Z,11.60
2022-10-28T01:55:41.794Z,11.60
2022-10-28T01:58:15.577Z,11.60
2022-10-28T02:00:48.129Z,11.60
2022-10-28T02:03:19.961Z,11.60
2022-10-28T02:05:53.588Z,11.60
2022-10-28T02:08:28.090Z,11.60
2022-10-28T02:11:15.237Z,11.50
2022-10-28T02:13:52.013Z,11.50
2022-10-28T02:16:30.812Z,11.50
2022-10-28T02:19:02.553Z,11.50
2022-10-28T02:21:53.179Z,11.50
2022-10-28T02:24:45.194Z,11.40
2022-10-28T02:27:29.674Z,11.40
2022-10-28T02:30:09.246Z,11.50
2022-10-28T02:32:44.605Z,11.50
2022-10-28T02:35:33.713Z,11.40
2022-10-28T02:38:07.797Z,11.40
2022-10-28T02:40:39.923Z,11.40
2022-10-28T02:43:15.646Z,11.40
2022-10-28T02:45:49.257Z,11.40
2022-10-28T02:48:27.247Z,11.50
2022-10-28T02:51:10.434Z,11.50
2022-10-28T02:54:07.720Z,11.50
2022-10-28T02:56:42.731Z,11.50
2022-10-28T02:59:14.464Z,11.50
2022-10-28T03:01:46.318Z,11.50
2022-10-28T03:04:18.111Z,11.50
2022-10-28T03:06:49.842Z,11.50
2022-10-28T03:09:21.616Z,11.50
2022-10-28T03:11:53.349Z,11.50
2022-10-28T03:14:25.042Z,11.50
2022-10-28T03:16:56.803Z,11.50
2022-10-28T03:19:33.567Z,11.50
2022-10-28T03:22:07.826Z,11.50
2022-10-28T03:24:39.592Z,11.60
2022-10-28T03:27:11.312Z,11.60
2022-10-28T03:29:45.755Z,11.60
2022-10-28T03:32:18.107Z,11.60
2022-10-28T03:34:49.854Z,11.60
2022-10-28T03:37:21.595Z,11.50
2022-10-28T03:39:53.422Z,11.50
2022-10-28T03:42:25.201Z,11.50
2022-10-28T03:44:56.934Z,11.50
2022-10-28T03:47:28.793Z,11.50
2022-10-28T03:50:00.466Z,11.50
2022-10-28T03:52:32.239Z,11.50
2022-10-28T03:55:04.178Z,11.50
2022-10-28T03:57:35.981Z,11.60
2022-10-28T04:00:07.957Z,11.60
2022-10-28T04:02:39.759Z,11.70
2022-10-28T04:05:13.998Z,11.70
2022-10-28T04:07:45.988Z,11.70
2022-10-28T04:10:17.729Z,11.80
2022-10-28T04:12:49.475Z,11.80
2022-10-28T04:15:24.133Z,11.80
2022-10-28T04:17:55.896Z,11.80
2022-10-28T04:20:28.117Z,11.80
2022-10-28T04:23:00.378Z,11.80
2022-10-28T04:25:32.264Z,11.80
2022-10-28T04:28:04.066Z,11.80
2022-10-28T04:30:35.771Z,11.80
2022-10-28T04:33:07.523Z,11.80
2022-10-28T04:35:43.242Z,11.80
2022-10-28T04:38:15.598Z,11.90
2022-10-28T04:40:48.940Z,11.90
2022-10-28T04:43:23.248Z,11.90
2022-10-28T04:45:54.942Z,12.00
2022-10-28T04:48:29.215Z,12.00
2022-10-28T04:51:01.125Z,12.00
2022-10-28T04:53:32.929Z,12.00
2022-10-28T04:56:04.756Z,12.10
2022-10-28T04:58:36.534Z,12.10
2022-10-28T05:01:09.472Z,12.00
2022-10-28T05:03:41.299Z,11.90
2022-10-28T05:06:13.013Z,11.80
2022-10-28T05:08:44.831Z,11.60
2022-10-28T05:11:16.547Z,11.50
2022-10-28T05:13:48.411Z,11.30
2022-10-28T05:16:20.303Z,11.20
2022-10-28T05:18:52.099Z,11.10
2022-10-28T05:21:23.798Z,11.00
2022-10-28T05:23:55.561Z,10.90
2022-10-28T05:26:29.727Z,10.90
2022-10-28T05:29:01.455Z,10.90
2022-10-28T05:31:35.541Z,10.80
2022-10-28T05:34:07.362Z,10.80
2022-10-28T05:36:39.109Z,10.80
2022-10-28T05:39:10.884Z,10.70
2022-10-28T05:41:42.656Z,10.70
2022-10-28T05:44:16.924Z,10.70
2022-10-28T05:46:48.702Z,10.70
2022-10-28T05:49:20.738Z,10.60
2022-10-28T05:51:52.439Z,10.60
2022-10-28T05:54:26.571Z,10.50
2022-10-28T05:56:58.355Z,10.40
2022-10-28T05:59:30.125Z,10.40
2022-10-28T06:02:04.328Z,10.30
2022-10-28T06:04:36.061Z,10.20
2022-10-28T06:07:07.880Z,10.20
2022-10-28T06:09:39.633Z,10.20
2022-10-28T06:12:09.858Z,10.20
2022-10-28T06:14:41.615Z,10.20
2022-10-28T06:17:13.354Z,10.10
2022-10-28T06:19:45.103Z,10.10
2022-10-28T06:22:17.210Z,10.10
2022-10-28T06:24:49.011Z,10.10
2022-10-28T06:27:20.741Z,10.10
2022-10-28T06:29:54.857Z,10.10
2022-10-28T06:32:26.576Z,10.20
2022-10-28T06:34:58.350Z,10.20
2022-10-28T06:37:30.062Z,10.30
2022-10-28T06:40:04.323Z,10.30
2022-10-28T06:42:38.477Z,10.40
2022-10-28T06:45:10.280Z,10.40
2022-10-28T06:47:43.497Z,10.40
2022-10-28T06:50:15.325Z,10.50
2022-10-28T06:52:47.064Z,10.60
2022-10-28T06:55:18.899Z,10.70
2022-10-28T06:57:50.765Z,10.80
2022-10-28T07:00:22.680Z,10.80
2022-10-28T07:02:55.069Z,10.90
2022-10-28T07:05:27.883Z,11.00
2022-10-28T07:08:02.157Z,11.00
2022-10-28T07:10:33.913Z,11.00
2022-10-28T07:13:05.680Z,11.00
2022-10-28T07:15:37.536Z,11.00
2022-10-28T07:18:09.380Z,11.10
2022-10-28T07:20:41.183Z,11.30
2022-10-28T07:23:12.970Z,11.40
2022-10-28T07:25:51.290Z,11.60
2022-10-28T07:28:23.757Z,11.80
2022-10-28T07:30:55.577Z,12.00
2022-10-28T07:33:27.329Z,12.20
2022-10-28T07:35:59.186Z,12.40
2022-10-28T07:38:31.063Z,12.50
2022-10-28T07:41:06.326Z,12.60
2022-10-28T07:43:38.535Z,12.70
2022-10-28T07:46:10.619Z,12.70
2022-10-28T07:48:44.779Z,12.90
2022-10-28T07:51:16.681Z,13.10
2022-10-28T07:53:48.427Z,13.20
2022-10-28T07:56:20.134Z,13.30
2022-10-28T07:58:51.896Z,13.30
2022-10-28T08:01:23.719Z,13.40
2022-10-28T08:03:55.504Z,13.40
2022-10-28T08:06:27.268Z,13.40
2022-10-28T08:09:01.235Z,13.30
2022-10-28T08:11:35.257Z,13.30
2022-10-28T08:14:07.031Z,13.40
2022-10-28T08:16:38.826Z,13.50
2022-10-28T08:19:10.826Z,13.70
2022-10-28T08:21:42.595Z,13.80
2022-10-28T08:24:16.706Z,13.90
2022-10-28T08:26:48.691Z,13.90
2022-10-28T08:29:20.426Z,14.00
2022-10-28T08:31:52.259Z,14.00
2022-10-28T08:34:24.095Z,14.10
2022-10-28T08:36:56.725Z,14.20
2022-10-28T08:39:28.509Z,14.30
2022-10-28T08:42:08.107Z,14.40
2022-10-28T08:44:49.287Z,14.50
2022-10-28T08:47:38.830Z,14.60
2022-10-28T08:50:19.080Z,14.80
2022-10-28T08:52:50.955Z,15.00
2022-10-28T08:55:26.010Z,15.10
2022-10-28T08:58:00.260Z,15.20
2022-10-28T09:00:34.802Z,15.40
2022-10-28T09:03:09.237Z,15.60
2022-10-28T09:05:45.746Z,15.80
2022-10-28T09:08:22.998Z,15.80
2022-10-28T09:11:00.625Z,15.90
2022-10-28T09:13:32.408Z,16.00
2022-10-28T09:16:13.674Z,16.10
2022-10-28T09:18:52.603Z,16.30
2022-10-28T09:21:31.816Z,16.30
2022-10-28T09:24:12.778Z,16.50
2022-10-28T09:26:50.351Z,16.60
2022-10-28T09:29:47.225Z,16.80
2022-10-28T09:32:26.118Z,16.80
2022-10-28T09:35:05.461Z,17.00
2022-10-28T09:37:49.632Z,17.10
2022-10-28T09:40:26.044Z,17.20
2022-10-28T09:43:00.890Z,17.30
2022-10-28T09:45:34.987Z,17.40
2022-10-28T09:48:17.010Z,17.50
2022-10-28T09:50:55.294Z,17.60
2022-10-28T09:53:35.071Z,17.60
2022-10-28T09:58:44.158Z,17.60
2022-10-28T10:01:17.955Z,17.60
2022-10-28T10:03:50.789Z,17.60
2022-10-28T10:06:26.127Z,17.60
2022-10-28T10:08:57.954Z,17.60
2022-10-28T10:11:34.949Z,17.60
2022-10-28T10:14:15.237Z,17.60
2022-10-28T10:16:53.293Z,17.50
2022-10-28T10:19:30.056Z,17.50
2022-10-28T10:22:04.404Z,17.50
2022-10-28T10:24:36.326Z,17.60
2022-10-28T10:27:11.553Z,17.70
2022-10-28T10:29:47.867Z,17.90
2022-10-28T10:32:23.048Z,18.00
2022-10-28T10:35:02.047Z,18.20
2022-10-28T10:37:35.743Z,18.20
2022-10-28T10:40:18.769Z,18.30
2022-10-28T10:43:13.199Z,18.20
2022-10-28T10:45:53.357Z,18.20
2022-10-28T10:48:25.409Z,18.10
2022-10-28T10:50:59.659Z,18.10
2022-10-28T10:53:32.209Z,18.10
2022-10-28T10:56:06.150Z,18.10
2022-10-28T10:58:39.271Z,18.10
2022-10-28T11:01:17.529Z,18.00
2022-10-28T11:03:50.639Z,18.10
2022-10-28T11:06:30.492Z,18.00
2022-10-28T11:09:17.541Z,18.00
2022-10-28T11:11:49.470Z,18.00
2022-10-28T11:14:27.965Z,18.00
2022-10-28T11:17:01.268Z,18.00
2022-10-28T11:19:34.851Z,17.90
2022-10-28T11:22:25.014Z,17.90
2022-10-28T11:24:56.773Z,17.90
2022-10-28T11:27:28.465Z,18.00
2022-10-28T11:30:01.082Z,18.00
2022-10-28T11:32:45.255Z,17.90
2022-10-28T11:35:48.699Z,17.80
2022-10-28T11:38:27.371Z,17.70
2022-10-28T11:41:02.019Z,17.60
2022-10-28T11:43:37.874Z,17.50
2022-10-28T11:46:12.801Z,17.30
2022-10-28T11:48:59.716Z,17.20
2022-10-28T11:51:38.540Z,17.10
2022-10-28T11:54:30.224Z,17.00
2022-10-28T11:57:10.395Z,17.10
2022-10-28T11:59:59.722Z,17.10
2022-10-28T12:02:31.952Z,17.30
2022-10-28T12:05:18.219Z,17.40
2022-10-28T12:08:05.483Z,17.50
2022-10-28T12:10:45.851Z,17.50
2022-10-28T12:13:36.450Z,17.50
2022-10-28T12:16:33.942Z,17.40
2022-10-28T12:19:08.448Z,17.30
2022-10-28T12:21:42.061Z,17.20
2022-10-28T12:24:16.331Z,17.20
2022-10-28T12:26:53.418Z,17.20
2022-10-28T12:29:33.825Z,17.30
2022-10-28T12:32:08.384Z,17.40
2022-10-28T12:34:43.444Z,17.50
2022-10-28T12:37:19.963Z,17.70
2022-10-28T12:39:56.950Z,17.80
2022-10-28T12:42:37.162Z,17.90
2022-10-28T12:45:12.795Z,18.00
2022-10-28T12:47:44.512Z,18.00
2022-10-28T12:50:24.746Z,18.10
2022-10-28T12:53:16.813Z,18.20
2022-10-28T12:55:54.668Z,18.30
2022-10-28T12:58:41.924Z,18.50
2022-10-28T13:01:17.935Z,18.50
2022-10-28T13:03:50.496Z,18.70
2022-10-28T13:06:31.246Z,18.70
2022-10-28T13:09:17.797Z,18.80
2022-10-28T13:12:08.106Z,18.80
2022-10-28T13:15:03.273Z,18.90
2022-10-28T13:17:37.431Z,18.90
2022-10-28T13:20:15.438Z,18.80
2022-10-28T13:22:47.147Z,18.60
2022-10-28T13:25:31.295Z,18.50
2022-10-28T13:28:03.509Z,18.40
2022-10-28T13:30:35.401Z,18.30
2022-10-28T13:33:09.012Z,18.30
2022-10-28T13:35:40.809Z,18.20
2022-10-28T13:38:13.399Z,18.20
2022-10-28T13:41:02.820Z,18.20
2022-10-28T13:43:49.661Z,18.20
2022-10-28T13:46:40.172Z,18.20
2022-10-28T13:49:24.506Z,18.10
2022-10-28T13:52:08.248Z,18.10
2022-10-28T13:54:42.784Z,18.00
2022-10-28T13:57:34.774Z,18.00
2022-10-28T14:03:00.845Z,17.80
2022-10-28T14:05:35.882Z,17.60
2022-10-28T14:08:08.569Z,17.60
2022-10-28T14:10:43.239Z,17.50
2022-10-28T14:13:23.258Z,17.40
2022-10-28T14:16:17.129Z,17.30
2022-10-28T14:18:53.997Z,17.20
2022-10-28T14:21:38.809Z,17.20
2022-10-28T14:24:12.223Z,17.10
2022-10-28T14:27:08.153Z,17.00
2022-10-28T14:29:43.111Z,16.90
2022-10-28T14:32:44.281Z,16.80
2022-10-28T14:35:16.070Z,16.70
2022-10-28T14:37:47.911Z,16.70
2022-10-28T14:40:31.463Z,16.60
2022-10-28T14:43:27.848Z,16.50
2022-10-28T14:46:20.310Z,16.40
2022-10-28T14:48:56.198Z,16.20
2022-10-28T14:51:30.163Z,16.10
2022-10-28T14:54:02.478Z,16.00
2022-10-28T14:56:35.317Z,15.90
2022-10-28T14:59:25.867Z,15.80
2022-10-28T15:02:03.931Z,15.70
2022-10-28T15:04:37.482Z,15.60
2022-10-28T15:07:12.457Z,15.50
2022-10-28T15:09:48.885Z,15.40
2022-10-28T15:12:22.522Z,15.30
2022-10-28T15:14:55.924Z,15.20
2022-10-28T15:17:29.558Z,15.20
2022-10-28T15:20:01.435Z,15.10
2022-10-28T15:22:35.403Z,15.00
2022-10-28T15:25:12.298Z,15.00
2022-10-28T15:27:47.078Z,14.90
2022-10-28T15:30:26.325Z,14.80
2022-10-28T15:33:17.818Z,14.70
2022-10-28T15:35:50.191Z,14.70
2022-10-28T15:38:26.602Z,14.60
2022-10-28T15:40:58.919Z,14.50
2022-10-28T15:43:30.995Z,14.50
2022-10-28T15:46:09.032Z,14.50
2022-10-28T15:48:41.212Z,14.40
2022-10-28T15:51:13.182Z,14.40
2022-10-28T15:53:45.552Z,14.40
2022-10-28T15:56:18.817Z,14.40
2022-10-28T15:59:10.811Z,14.40
2022-10-28T16:01:42.711Z,14.40
2022-10-28T16:04:23.659Z,14.40
2022-10-28T16:06:58.608Z,14.40
2022-10-28T16:09:34.533Z,14.30
2022-10-28T16:12:14.296Z,14.30
2022-10-28T16:14:49.258Z,14.20
2022-10-28T16:17:23.211Z,14.20
2022-10-28T16:19:57.379Z,14.10
2022-10-28T16:22:30.450Z,14.10
2022-10-28T16:25:02.193Z,14.20
2022-10-28T16:27:33.943Z,14.10
2022-10-28T16:30:06.823Z,14.10
2022-10-28T16:32:39.928Z,14.10
2022-10-28T16:35:15.809Z,14.10
2022-10-28T16:37:53.938Z,14.10
2022-10-28T16:40:50.424Z,14.00
2022-10-28T16:43:21.192Z,14.00
2022-10-28T16:45:53.981Z,13.90
2022-10-28T16:48:27.214Z,13.80
2022-10-28T16:51:03.291Z,13.80
2022-10-28T16:53:35.361Z,13.80
2022-10-28T16:56:14.983Z,13.70
2022-10-28T16:58:48.364Z,13.70
2022-10-28T17:01:23.430Z,13.70
2022-10-28T17:03:57.810Z,13.60
2022-10-28T17:06:31.766Z,13.50
2022-10-28T17:09:04.076Z,13.50
2022-10-28T17:11:35.977Z,13.50
2022-10-28T17:14:07.946Z,13.40
2022-10-28T17:16:42.412Z,13.40
2022-10-28T17:19:15.400Z,13.30
2022-10-28T17:21:47.258Z,13.30
2022-10-28T17:24:20.466Z,13.20
2022-10-28T17:26:52.821Z,13.20
2022-10-28T17:29:24.643Z,13.20
2022-10-28T17:31:56.359Z,13.10
2022-10-28T17:34:28.169Z,13.10
2022-10-28T17:36:59.961Z,13.10
2022-10-28T17:39:31.832Z,13.10
2022-10-28T17:42:03.841Z,13.00
2022-10-28T17:44:35.756Z,13.00
2022-10-28T17:47:09.015Z,13.00
2022-10-28T17:49:47.745Z,13.00
2022-10-28T17:52:19.458Z,12.90
2022-10-28T17:54:51.421Z,12.90
2022-10-28T17:57:23.216Z,12.80
2022-10-28T17:59:55.066Z,12.80
2022-10-28T18:02:27.038Z,12.80
2022-10-28T18:05:00.739Z,12.70
2022-10-28T18:07:32.651Z,12.70
2022-10-28T18:10:04.595Z,12.60
2022-10-28T18:12:36.437Z,12.60
2022-10-28T18:15:09.778Z,12.50
2022-10-28T18:17:43.645Z,12.50
2022-10-28T18:20:15.446Z,12.50
2022-10-28T18:22:47.212Z,12.40
2022-10-28T18:25:19.015Z,12.40
2022-10-28T18:27:50.723Z,12.30
2022-10-28T18:30:24.607Z,12.30
2022-10-28T18:32:56.931Z,12.30
2022-10-28T18:35:29.555Z,12.20
2022-10-28T18:38:01.706Z,12.20
2022-10-28T18:40:35.808Z,12.20
2022-10-28T18:43:10.368Z,12.20
2022-10-28T18:45:42.240Z,12.20
2022-10-28T18:48:16.184Z,12.10
2022-10-28T18:50:57.441Z,12.10
2022-10-28T18:53:34.872Z,12.10
2022-10-28T18:56:10.432Z,12.00
2022-10-28T18:58:46.929Z,12.00
2022-10-28T19:01:22.014Z,12.00
2022-10-28T19:03:54.894Z,12.10
2022-10-28T19:06:29.957Z,12.20
2022-10-28T19:09:04.663Z,12.20
2022-10-28T19:11:39.670Z,12.30
2022-10-28T19:14:15.610Z,12.40
2022-10-28T19:16:49.594Z,12.50
2022-10-28T19:19:21.402Z,12.50
2022-10-28T19:21:53.238Z,12.70
2022-10-28T19:24:25.189Z,12.80
2022-10-28T19:26:57.152Z,12.90
2022-10-28T19:29:28.928Z,13.00
2022-10-28T19:32:01.233Z,13.10
2022-10-28T19:34:33.042Z,13.10
2022-10-28T19:37:08.487Z,13.10
2022-10-28T19:39:42.321Z,13.20
2022-10-28T19:42:14.203Z,13.20
2022-10-28T19:44:45.974Z,13.30
2022-10-28T19:47:18.644Z,13.30
2022-10-28T19:49:50.459Z,13.40
2022-10-28T19:52:22.536Z,13.40
2022-10-28T19:54:54.432Z,13.40
2022-10-28T19:57:26.350Z,13.50
2022-10-28T19:59:58.858Z,13.50
2022-10-28T20:02:30.961Z,13.50
2022-10-28T20:05:02.759Z,13.50
2022-10-28T20:07:37.123Z,13.60
2022-10-28T20:10:09.144Z,13.60
2022-10-28T20:12:41.052Z,13.60
2022-10-28T20:15:13.228Z,13.60
2022-10-28T20:17:47.340Z,13.60
2022-10-28T20:20:19.543Z,13.60
2022-10-28T20:22:53.723Z,13.70
2022-10-28T20:25:25.467Z,13.70
2022-10-28T20:27:57.742Z,13.70
2022-10-28T20:30:32.326Z,13.70
2022-10-28T20:33:06.958Z,13.70
2022-10-28T20:35:38.722Z,13.70
2022-10-28T20:38:12.074Z,13.70
2022-10-28T20:40:46.938Z,13.70
2022-10-28T20:43:20.489Z,13.70
2022-10-28T20:45:59.607Z,13.80
2022-10-28T20:48:31.555Z,13.80
2022-10-28T20:51:03.544Z,13.80
2022-10-28T20:53:35.928Z,13.90
2022-10-28T20:56:14.566Z,13.90
2022-10-28T20:58:46.445Z,14.00
2022-10-28T21:01:23.218Z,14.00
2022-10-28T21:03:59.582Z,14.10
2022-10-28T21:06:31.778Z,14.10
2022-10-28T21:09:05.402Z,14.20
2022-10-28T21:11:37.303Z,14.20
2022-10-28T21:14:09.285Z,14.20
2022-10-28T21:16:43.707Z,14.30
2022-10-28T21:19:15.685Z,14.30
2022-10-28T21:21:47.592Z,14.30
2022-10-28T21:24:21.810Z,14.40
2022-10-28T21:26:55.926Z,14.40
2022-10-28T21:29:30.201Z,14.30
2022-10-28T21:32:02.015Z,14.30
2022-10-28T21:34:33.908Z,14.40
2022-10-28T21:37:05.850Z,14.40
2022-10-28T21:39:39.891Z,14.40
2022-10-28T21:42:11.693Z,14.40
2022-10-28T21:44:43.585Z,14.30
2022-10-28T21:47:15.385Z,14.30
2022-10-28T21:49:50.715Z,14.30
2022-10-28T21:52:22.664Z,14.30
2022-10-28T21:54:54.460Z,14.30
2022-10-28T21:57:30.233Z,14.30
2022-10-28T22:00:02.253Z,14.20
2022-10-28T22:02:34.395Z,14.20
2022-10-28T22:05:06.326Z,14.20
2022-10-28T22:07:38.122Z,14.20
2022-10-28T22:10:12.397Z,14.20
2022-10-28T22:12:44.086Z,14.10
2022-10-28T22:15:16.033Z,14.10
2022-10-28T22:17:47.877Z,14.10
2022-10-28T22:20:19.827Z,14.00
2022-10-28T22:22:51.629Z,14.00
2022-10-28T22:25:25.819Z,14.00
2022-10-28T22:27:57.606Z,14.00
2022-10-28T22:30:29.420Z,14.00
2022-10-28T22:33:01.176Z,13.90
2022-10-28T22:35:35.372Z,13.90
2022-10-28T22:38:09.495Z,13.80
2022-10-28T22:40:43.643Z,13.80
2022-10-28T22:43:15.452Z,13.80
2022-10-28T22:45:47.832Z,13.80
2022-10-28T22:48:19.507Z,13.70
2022-10-28T22:50:51.761Z,13.70
2022-10-28T22:53:23.761Z,13.70
2022-10-28T22:55:55.910Z,13.70
2022-10-28T22:58:30.799Z,13.60
2022-10-28T23:01:12.927Z,13.60
2022-10-28T23:03:45.893Z,13.60
2022-10-28T23:06:18.624Z,13.60
2022-10-28T23:08:50.618Z,13.60
2022-10-28T23:11:22.523Z,13.50
2022-10-28T23:13:55.069Z,13.50
2022-10-28T23:16:26.838Z,13.50
2022-10-28T23:19:00.558Z,13.50
2022-10-28T23:21:32.287Z,13.50
2022-10-28T23:24:04.183Z,13.50
2022-10-28T23:26:38.389Z,13.50
2022-10-28T23:29:10.131Z,13.50
2022-10-28T23:31:44.125Z,13.50
2022-10-28T23:34:15.850Z,13.50
2022-10-28T23:36:50.237Z,13.60
2022-10-28T23:39:22.250Z,13.60
2022-10-28T23:41:53.977Z,13.60
2022-10-28T23:44:25.914Z,13.60
2022-10-28T23:46:57.758Z,13.60
2022-10-28T23:49:29.462Z,13.70
2022-10-28T23:52:01.225Z,13.60
2022-10-28T23:54:32.950Z,13.60
2022-10-28T23:57:04.713Z,13.70
2022-10-28T23:59:36.411Z,13.70
